createdAt,value
2019-03-04T00:00:20.392Z,80.96
2019-03-04T00:01:20.465Z,81.37
2019-03-04T00:02:20.415Z,80.75
2019-03-04T00:03:20.396Z,81.26
2019-03-04T00:04:20.360Z,81.32
2019-03-04T00:05:20.369Z,81.16
2019-03-04T00:06:20.323Z,81.46
2019-03-04T00:07:20.313Z,81.37
2019-03-04T00:08:20.338Z,81.46
2019-03-04T00:09:20.374Z,80.55
2019-03-04T00:10:20.296Z,80.34
2019-03-04T00:11:20.290Z,81.37
2019-03-04T00:12:20.262Z,80.41
2019-03-04T00:13:20.303Z,80.20
2019-03-04T00:14:20.242Z,80.96
2019-03-04T00:15:20.566Z,80.30
2019-03-04T00:16:20.217Z,80.61
2019-03-04T00:17:20.228Z,80.41
2019-03-04T00:18:20.194Z,80.41
2019-03-04T00:19:20.184Z,80.75
2019-03-04T00:20:20.176Z,80.55
2019-03-04T00:21:20.844Z,80.55
2019-03-04T00:22:20.161Z,81.05
2019-03-04T00:23:20.143Z,80.96
2019-03-04T00:24:20.290Z,81.16
2019-03-04T00:25:20.121Z,81.16
2019-03-04T00:26:20.110Z,80.55
2019-03-04T00:27:20.126Z,81.60
2019-03-04T00:28:20.173Z,80.96
2019-03-04T00:29:20.137Z,81.46
2019-03-04T00:30:20.074Z,81.60
2019-03-04T00:31:20.068Z,81.91
2019-03-04T00:32:20.051Z,81.46
2019-03-04T00:33:20.067Z,81.40
2019-03-04T00:34:20.028Z,81.60
2019-03-04T00:35:20.017Z,80.85
2019-03-04T00:36:20.047Z,80.69
2019-03-04T00:37:19.992Z,80.04
2019-03-04T00:38:19.978Z,80.44
2019-03-04T00:39:19.991Z,80.14
2019-03-04T00:40:19.961Z,80.04
2019-03-04T00:41:20.039Z,79.90
2019-03-04T00:42:19.942Z,79.49
2019-03-04T00:43:19.949Z,79.75
2019-03-04T00:44:19.917Z,79.80
2019-03-04T00:45:19.903Z,79.75
2019-03-04T00:46:19.969Z,79.49
2019-03-04T00:47:19.893Z,79.90
2019-03-04T00:48:19.895Z,80.82
2019-03-04T00:49:19.867Z,81.23
2019-03-04T00:50:19.850Z,81.46
2019-03-04T00:51:19.920Z,81.26
2019-03-04T00:52:19.848Z,81.05
2019-03-04T00:53:19.842Z,81.67
2019-03-04T00:54:19.814Z,81.57
2019-03-04T00:55:19.829Z,81.46
2019-03-04T00:56:19.787Z,81.26
2019-03-04T00:57:19.776Z,82.79
2019-03-04T00:58:19.762Z,82.28
2019-03-04T00:59:19.857Z,82.69
2019-03-04T01:00:19.748Z,82.28
2019-03-04T01:01:19.915Z,81.77
2019-03-04T01:02:19.722Z,81.87
2019-03-04T01:03:19.730Z,81.77
2019-03-04T01:04:19.715Z,82.49
2019-03-04T01:05:19.782Z,82.42
2019-03-04T01:06:19.683Z,82.63
2019-03-04T01:07:19.671Z,82.73
2019-03-04T01:08:19.687Z,82.22
2019-03-04T01:09:19.644Z,82.42
2019-03-04T01:10:19.634Z,82.01
2019-03-04T01:11:19.625Z,82.08
2019-03-04T01:12:19.616Z,82.39
2019-03-04T01:13:19.626Z,81.37
2019-03-04T01:14:19.614Z,81.16
2019-03-04T01:15:19.583Z,81.10
2019-03-04T01:16:19.571Z,80.75
2019-03-04T01:17:19.558Z,80.65
2019-03-04T01:18:19.553Z,80.75
2019-03-04T01:19:19.558Z,80.85
2019-03-04T01:20:19.529Z,80.75
2019-03-04T01:21:19.514Z,80.34
2019-03-04T01:22:19.503Z,80.24
2019-03-04T01:23:19.495Z,80.14
2019-03-04T01:24:19.503Z,80.00
2019-03-04T01:25:19.477Z,79.43
2019-03-04T01:26:19.466Z,79.52
2019-03-04T01:27:19.455Z,80.04
2019-03-04T01:28:19.443Z,79.59
2019-03-04T01:29:19.446Z,78.98
2019-03-04T01:30:19.416Z,79.90
2019-03-04T01:31:19.407Z,78.98
2019-03-04T01:32:19.399Z,78.37
2019-03-04T01:33:19.395Z,78.98
2019-03-04T01:34:19.396Z,77.96
2019-03-04T01:35:19.367Z,77.96
2019-03-04T01:36:19.356Z,77.72
2019-03-04T01:37:19.363Z,77.82
2019-03-04T01:38:19.362Z,78.06
2019-03-04T01:39:19.323Z,77.72
2019-03-04T01:40:19.312Z,77.75
2019-03-04T01:41:19.323Z,77.92
2019-03-04T01:42:19.287Z,77.96
2019-03-04T01:43:19.280Z,77.96
2019-03-04T01:44:19.286Z,77.75
2019-03-04T01:45:19.309Z,77.45
2019-03-04T01:46:19.252Z,77.82
2019-03-04T01:47:19.237Z,77.25
2019-03-04T01:48:19.224Z,77.31
2019-03-04T01:49:19.228Z,77.72
2019-03-04T01:50:19.207Z,76.80
2019-03-04T01:51:19.213Z,77.11
2019-03-04T01:52:19.183Z,76.29
2019-03-04T01:53:19.169Z,75.88
2019-03-04T01:54:19.175Z,75.68
2019-03-04T01:55:19.197Z,76.80
2019-03-04T01:56:19.141Z,76.29
2019-03-04T01:57:19.151Z,76.50
2019-03-04T01:58:19.129Z,76.19
2019-03-04T01:59:19.126Z,76.19
2019-03-04T02:00:19.095Z,76.59
2019-03-04T02:01:19.083Z,76.09
2019-03-04T02:02:19.071Z,76.09
2019-03-04T02:03:19.063Z,76.29
2019-03-04T02:04:19.079Z,77.00
2019-03-04T02:05:19.048Z,76.59
2019-03-04T02:06:19.035Z,76.29
2019-03-04T02:07:19.019Z,77.82
2019-03-04T02:08:19.018Z,76.93
2019-03-04T02:09:19.006Z,76.53
2019-03-04T02:10:19.013Z,76.39
2019-03-04T02:11:18.985Z,76.19
2019-03-04T02:12:18.998Z,75.16
2019-03-04T02:13:18.952Z,75.57
2019-03-04T02:14:18.975Z,76.09
2019-03-04T02:15:19.119Z,76.09
2019-03-04T02:16:18.926Z,75.57
2019-03-04T02:17:18.916Z,76.09
2019-03-04T02:18:18.984Z,76.29
2019-03-04T02:19:18.895Z,76.09
2019-03-04T02:20:18.880Z,75.85
2019-03-04T02:21:18.883Z,75.98
2019-03-04T02:22:18.864Z,76.39
2019-03-04T02:23:18.868Z,75.98
2019-03-04T02:24:18.838Z,76.29
2019-03-04T02:25:18.824Z,76.70
2019-03-04T02:26:18.813Z,76.53
2019-03-04T02:27:18.828Z,77.11
2019-03-04T02:28:18.798Z,76.80
2019-03-04T02:29:18.788Z,76.29
2019-03-04T02:30:18.778Z,77.25
2019-03-04T02:31:18.783Z,77.11
2019-03-04T02:32:18.759Z,77.75
2019-03-04T02:33:18.768Z,76.63
2019-03-04T02:34:18.741Z,76.43
2019-03-04T02:35:18.768Z,76.09
2019-03-04T02:36:18.849Z,76.09
2019-03-04T02:37:18.703Z,75.88
2019-03-04T02:38:18.687Z,75.88
2019-03-04T02:39:18.708Z,76.09
2019-03-04T02:40:18.669Z,76.73
2019-03-04T02:41:27.981Z,76.29
2019-03-04T02:42:18.648Z,76.63
2019-03-04T02:43:18.657Z,76.84
2019-03-04T02:44:18.641Z,77.86
2019-03-04T02:45:18.613Z,77.34
2019-03-04T02:46:18.604Z,77.55
2019-03-04T02:47:18.613Z,77.55
2019-03-04T02:48:18.591Z,78.06
2019-03-04T02:49:18.638Z,77.45
2019-03-04T02:50:18.570Z,78.06
2019-03-04T02:51:18.554Z,78.16
2019-03-04T02:52:18.569Z,77.55
2019-03-04T02:53:18.543Z,77.45
2019-03-04T02:54:18.524Z,77.65
2019-03-04T02:55:18.601Z,77.86
2019-03-04T02:56:18.507Z,77.45
2019-03-04T02:57:18.484Z,77.45
2019-03-04T02:58:18.490Z,77.75
2019-03-04T02:59:18.461Z,77.45
2019-03-04T03:00:18.480Z,77.96
2019-03-04T03:01:18.459Z,77.96
2019-03-04T03:02:18.431Z,77.55
2019-03-04T03:03:18.440Z,77.45
2019-03-04T03:04:18.454Z,77.14
2019-03-04T03:05:18.424Z,76.73
2019-03-04T03:06:18.402Z,77.34
2019-03-04T03:07:18.372Z,75.92
2019-03-04T03:08:18.628Z,77.04
2019-03-04T03:09:18.377Z,76.32
2019-03-04T03:10:18.343Z,76.32
2019-03-04T03:11:18.373Z,75.57
2019-03-04T03:12:18.496Z,76.29
2019-03-04T03:13:18.329Z,75.37
2019-03-04T03:14:18.307Z,76.50
2019-03-04T03:15:18.295Z,76.43
2019-03-04T03:16:18.297Z,76.22
2019-03-04T03:17:18.269Z,75.31
2019-03-04T03:18:18.258Z,75.41
2019-03-04T03:19:18.250Z,76.19
2019-03-04T03:20:18.242Z,75.31
2019-03-04T03:21:18.244Z,75.57
2019-03-04T03:22:18.239Z,76.09
2019-03-04T03:23:18.210Z,75.00
2019-03-04T03:24:18.192Z,75.37
2019-03-04T03:25:18.183Z,75.82
2019-03-04T03:26:18.192Z,75.27
2019-03-04T03:27:18.168Z,75.88
2019-03-04T03:28:18.177Z,74.96
2019-03-04T03:29:18.228Z,75.92
2019-03-04T03:30:18.157Z,76.22
2019-03-04T03:31:18.133Z,75.31
2019-03-04T03:32:18.113Z,75.10
2019-03-04T03:33:18.354Z,75.31
2019-03-04T03:34:18.101Z,74.59
2019-03-04T03:35:18.087Z,74.15
2019-03-04T03:36:18.120Z,74.55
2019-03-04T03:37:18.055Z,73.74
2019-03-04T03:38:18.141Z,74.35
2019-03-04T03:39:18.222Z,74.66
2019-03-04T03:40:18.026Z,74.45
2019-03-04T03:41:18.013Z,75.16
2019-03-04T03:42:19.146Z,74.66
2019-03-04T03:43:17.989Z,75.57
2019-03-04T03:44:18.035Z,74.96
2019-03-04T03:45:18.038Z,74.49
2019-03-04T03:46:17.963Z,74.15
2019-03-04T03:47:17.957Z,74.45
2019-03-04T03:48:18.002Z,74.35
2019-03-04T03:49:17.922Z,74.25
2019-03-04T03:50:17.913Z,75.27
2019-03-04T03:51:17.901Z,75.07
2019-03-04T03:52:17.896Z,75.00
2019-03-04T03:53:17.881Z,74.69
2019-03-04T03:54:17.890Z,74.05
2019-03-04T03:55:17.880Z,74.49
2019-03-04T03:56:17.943Z,74.45
2019-03-04T03:57:17.855Z,73.74
2019-03-04T03:58:17.829Z,73.54
2019-03-04T03:59:17.841Z,73.81
2019-03-04T04:00:17.806Z,72.79
2019-03-04T04:01:17.793Z,73.10
2019-03-04T04:02:17.802Z,72.89
2019-03-04T04:03:17.769Z,72.69
2019-03-04T04:04:17.788Z,72.69
2019-03-04T04:05:17.762Z,72.48
2019-03-04T04:06:17.742Z,72.48
2019-03-04T04:07:17.753Z,71.63
2019-03-04T04:08:17.738Z,70.51
2019-03-04T04:09:17.741Z,70.72
2019-03-04T04:10:17.697Z,70.61
2019-03-04T04:11:17.683Z,70.41
2019-03-04T04:12:17.698Z,70.41
2019-03-04T04:13:17.669Z,70.51
2019-03-04T04:14:17.654Z,71.02
2019-03-04T04:15:17.641Z,70.92
2019-03-04T04:16:17.666Z,71.73
2019-03-04T04:17:17.630Z,70.61
2019-03-04T04:18:17.613Z,70.41
2019-03-04T04:19:17.725Z,70.10
2019-03-04T04:20:17.704Z,70.92
2019-03-04T04:21:17.646Z,71.43
2019-03-04T04:22:17.599Z,71.02
2019-03-04T04:23:17.554Z,70.92
2019-03-04T04:24:17.552Z,70.41
2019-03-04T04:25:17.545Z,71.23
2019-03-04T04:26:17.533Z,70.61
2019-03-04T04:27:17.520Z,69.36
2019-03-04T04:28:17.578Z,69.49
2019-03-04T04:29:17.492Z,69.39
2019-03-04T04:30:17.493Z,69.90
2019-03-04T04:31:17.488Z,69.59
2019-03-04T04:32:17.459Z,69.87
2019-03-04T04:33:17.448Z,70.10
2019-03-04T04:34:17.456Z,69.80
2019-03-04T04:35:17.516Z,69.80
2019-03-04T04:36:17.453Z,70.00
2019-03-04T04:37:17.412Z,70.61
2019-03-04T04:38:17.521Z,69.70
2019-03-04T04:39:17.396Z,69.49
2019-03-04T04:40:17.376Z,70.10
2019-03-04T04:41:17.362Z,70.10
2019-03-04T04:42:17.350Z,70.10
2019-03-04T04:43:17.361Z,70.41
2019-03-04T04:44:17.347Z,69.80
2019-03-04T04:45:17.436Z,69.49
2019-03-04T04:46:17.311Z,69.39
2019-03-04T04:47:17.299Z,69.80
2019-03-04T04:48:17.318Z,70.21
2019-03-04T04:49:17.307Z,70.10
2019-03-04T04:50:17.272Z,69.90
2019-03-04T04:51:17.275Z,70.72
2019-03-04T04:52:17.379Z,70.61
2019-03-04T04:53:17.348Z,71.06
2019-03-04T04:54:17.221Z,71.67
2019-03-04T04:55:17.230Z,71.87
2019-03-04T04:56:17.208Z,71.77
2019-03-04T04:57:17.195Z,72.28
2019-03-04T04:58:17.210Z,71.67
2019-03-04T04:59:17.172Z,71.06
2019-03-04T05:00:17.162Z,71.87
2019-03-04T05:01:17.211Z,71.77
2019-03-04T05:02:17.197Z,71.36
2019-03-04T05:03:17.149Z,71.87
2019-03-04T05:04:17.116Z,72.28
2019-03-04T05:05:17.274Z,72.28
2019-03-04T05:06:17.175Z,72.48
2019-03-04T05:07:17.093Z,72.17
2019-03-04T05:08:17.078Z,72.79
2019-03-04T05:09:17.069Z,72.62
2019-03-04T05:10:17.348Z,72.41
2019-03-04T05:11:17.075Z,71.67
2019-03-04T05:12:17.047Z,71.67
2019-03-04T05:13:17.016Z,72.28
2019-03-04T05:14:17.007Z,72.11
2019-03-04T05:15:17.012Z,72.52
2019-03-04T05:16:17.529Z,73.03
2019-03-04T05:17:16.983Z,72.41
2019-03-04T05:18:17.029Z,72.62
2019-03-04T05:19:16.973Z,72.72
2019-03-04T05:20:16.949Z,72.52
2019-03-04T05:21:16.937Z,72.11
2019-03-04T05:22:16.965Z,72.62
2019-03-04T05:23:17.030Z,72.00
2019-03-04T05:24:16.934Z,72.21
2019-03-04T05:25:16.888Z,72.00
2019-03-04T05:26:16.894Z,72.31
2019-03-04T05:27:16.891Z,72.62
2019-03-04T05:28:16.860Z,72.72
2019-03-04T05:29:16.869Z,73.03
2019-03-04T05:30:16.926Z,73.27
2019-03-04T05:31:16.854Z,72.52
2019-03-04T05:32:16.820Z,72.62
2019-03-04T05:33:16.801Z,71.80
2019-03-04T05:34:16.798Z,72.00
2019-03-04T05:35:16.786Z,72.11
2019-03-04T05:36:16.817Z,72.21
2019-03-04T05:37:16.777Z,72.11
2019-03-04T05:38:16.753Z,71.77
2019-03-04T05:39:16.756Z,72.17
2019-03-04T05:40:16.855Z,72.11
2019-03-04T05:41:16.723Z,71.67
2019-03-04T05:42:16.786Z,71.97
2019-03-04T05:43:16.710Z,72.31
2019-03-04T05:44:16.688Z,71.50
2019-03-04T05:45:16.673Z,72.11
2019-03-04T05:46:16.662Z,72.31
2019-03-04T05:47:16.654Z,72.11
2019-03-04T05:48:16.678Z,72.21
2019-03-04T05:49:16.723Z,72.00
2019-03-04T05:50:17.119Z,72.21
2019-03-04T05:51:16.610Z,72.41
2019-03-04T05:52:16.608Z,72.00
2019-03-04T05:53:16.611Z,72.21
2019-03-04T05:54:16.600Z,72.72
2019-03-04T05:55:16.570Z,72.82
2019-03-04T05:56:16.560Z,72.72
2019-03-04T05:57:16.557Z,72.72
2019-03-04T05:58:16.532Z,72.62
2019-03-04T05:59:19.706Z,72.72
2019-03-04T06:00:16.523Z,72.72
2019-03-04T06:01:16.507Z,72.52
2019-03-04T06:02:16.497Z,72.31
2019-03-04T06:03:16.484Z,72.82
2019-03-04T06:04:16.475Z,72.62
2019-03-04T06:05:16.482Z,72.62
2019-03-04T06:06:16.452Z,72.31
2019-03-04T06:07:16.440Z,72.72
2019-03-04T06:08:16.429Z,73.03
2019-03-04T06:09:16.417Z,72.62
2019-03-04T06:10:16.408Z,73.23
2019-03-04T06:11:16.415Z,72.41
2019-03-04T06:12:16.401Z,72.62
2019-03-04T06:13:16.384Z,72.52
2019-03-04T06:14:16.368Z,72.82
2019-03-04T06:15:16.373Z,72.41
2019-03-04T06:16:16.341Z,72.82
2019-03-04T06:17:16.329Z,73.33
2019-03-04T06:18:16.318Z,73.47
2019-03-04T06:19:16.308Z,73.67
2019-03-04T06:20:16.318Z,73.67
2019-03-04T06:21:16.298Z,73.57
2019-03-04T06:22:16.272Z,73.98
2019-03-04T06:23:16.274Z,73.67
2019-03-04T06:24:16.256Z,73.57
2019-03-04T06:25:16.268Z,73.36
2019-03-04T06:26:16.256Z,73.47
2019-03-04T06:27:16.233Z,74.08
2019-03-04T06:28:16.211Z,74.69
2019-03-04T06:29:16.197Z,74.08
2019-03-04T06:30:16.210Z,74.38
2019-03-04T06:31:16.180Z,73.98
2019-03-04T06:32:16.175Z,73.98
2019-03-04T06:33:16.163Z,76.16
2019-03-04T06:34:16.153Z,80.44
2019-03-04T06:35:16.172Z,89.11
2019-03-04T06:36:16.133Z,93.98
2019-03-04T06:37:16.112Z,94.26
2019-03-04T06:38:16.135Z,95.20
2019-03-04T06:39:16.126Z,98.37
2019-03-04T06:40:16.095Z,99.08
2019-03-04T06:41:16.088Z,99.85
2019-03-04T06:42:16.068Z,99.99
2019-03-04T06:43:16.074Z,99.99
2019-03-04T06:44:16.046Z,99.94
2019-03-04T06:45:16.038Z,99.99
2019-03-04T06:46:16.036Z,99.99
2019-03-04T06:47:16.013Z,99.99
2019-03-04T06:48:16.014Z,99.99
2019-03-04T06:49:15.983Z,99.99
2019-03-04T06:50:15.974Z,99.99
2019-03-04T06:51:15.984Z,99.99
2019-03-04T06:52:15.960Z,99.99
2019-03-04T06:53:15.963Z,99.99
2019-03-04T06:54:15.932Z,99.99
2019-03-04T06:55:15.949Z,99.99
2019-03-04T06:56:16.000Z,99.99
2019-03-04T06:57:15.928Z,99.99
2019-03-04T06:58:15.911Z,99.99
2019-03-04T06:59:15.928Z,99.99
2019-03-04T07:00:15.906Z,99.99
2019-03-04T07:01:15.881Z,99.99
2019-03-04T07:02:15.844Z,99.99
2019-03-04T07:03:15.857Z,99.99
2019-03-04T07:04:15.834Z,99.99
2019-03-04T07:05:15.821Z,99.99
2019-03-04T07:06:15.810Z,99.99
2019-03-04T07:07:15.816Z,99.99
2019-03-04T07:08:15.781Z,99.99
2019-03-04T07:09:15.769Z,99.99
2019-03-04T07:10:15.767Z,99.99
2019-03-04T07:11:15.755Z,99.87
2019-03-04T07:12:15.772Z,99.98
2019-03-04T07:13:15.759Z,99.98
2019-03-04T07:14:15.716Z,99.15
2019-03-04T07:15:15.709Z,98.01
2019-03-04T07:16:15.698Z,97.81
2019-03-04T07:17:15.689Z,97.39
2019-03-04T07:18:15.687Z,97.71
2019-03-04T07:19:15.689Z,98.84
2019-03-04T07:20:15.663Z,98.11
2019-03-04T07:21:15.680Z,96.21
2019-03-04T07:22:15.639Z,95.28
2019-03-04T07:23:15.641Z,95.90
2019-03-04T07:24:15.630Z,96.47
2019-03-04T07:25:15.602Z,95.80
2019-03-04T07:26:15.589Z,94.56
2019-03-04T07:27:15.576Z,94.87
2019-03-04T07:28:15.587Z,93.38
2019-03-04T07:29:15.584Z,93.18
2019-03-04T07:30:15.554Z,93.18
2019-03-04T07:31:15.536Z,93.69
2019-03-04T07:32:15.524Z,92.00
2019-03-04T07:33:15.509Z,91.94
2019-03-04T07:34:15.506Z,91.48
2019-03-04T07:35:15.511Z,91.58
2019-03-04T07:36:15.494Z,91.48
2019-03-04T07:37:15.480Z,90.82
2019-03-04T07:38:15.464Z,90.61
2019-03-04T07:39:15.453Z,90.82
2019-03-04T07:40:16.419Z,90.10
2019-03-04T07:41:15.423Z,90.10
2019-03-04T07:42:15.454Z,89.85
2019-03-04T07:43:15.587Z,90.06
2019-03-04T07:44:15.402Z,88.82
2019-03-04T07:45:15.455Z,89.61
2019-03-04T07:46:15.382Z,88.89
2019-03-04T07:47:15.362Z,88.26
2019-03-04T07:48:15.355Z,86.88
2019-03-04T07:49:15.353Z,86.99
2019-03-04T07:50:15.361Z,87.19
2019-03-04T07:51:15.339Z,86.68
2019-03-04T07:52:15.319Z,85.41
2019-03-04T07:53:15.301Z,85.30
2019-03-04T07:54:15.284Z,86.43
2019-03-04T07:55:15.299Z,85.51
2019-03-04T07:56:15.274Z,84.44
2019-03-04T07:57:15.259Z,83.92
2019-03-04T07:58:15.241Z,83.83
2019-03-04T07:59:15.250Z,84.95
2019-03-04T08:00:15.225Z,84.13
2019-03-04T08:01:15.218Z,85.16
2019-03-04T08:02:15.237Z,84.75
2019-03-04T08:03:15.259Z,84.13
2019-03-04T08:04:15.179Z,84.71
2019-03-04T08:05:15.168Z,84.47
2019-03-04T08:06:15.158Z,83.75
2019-03-04T08:07:15.167Z,83.13
2019-03-04T08:08:15.145Z,82.78
2019-03-04T08:09:15.137Z,83.81
2019-03-04T08:10:15.156Z,82.47
2019-03-04T08:11:15.108Z,81.76
2019-03-04T08:12:15.097Z,81.14
2019-03-04T08:13:15.097Z,81.24
2019-03-04T08:14:15.076Z,82.84
2019-03-04T08:15:15.080Z,81.86
2019-03-04T08:16:15.071Z,80.83
2019-03-04T08:17:15.037Z,82.89
2019-03-04T08:18:15.048Z,82.13
2019-03-04T08:19:15.017Z,81.45
2019-03-04T08:20:15.009Z,80.93
2019-03-04T08:21:15.027Z,82.37
2019-03-04T08:22:14.996Z,80.49
2019-03-04T08:23:15.003Z,81.30
2019-03-04T08:24:14.983Z,81.20
2019-03-04T08:25:15.021Z,81.10
2019-03-04T08:26:14.971Z,82.43
2019-03-04T08:27:14.931Z,80.28
2019-03-04T08:28:14.922Z,79.66
2019-03-04T08:29:14.914Z,78.85
2019-03-04T08:30:14.898Z,79.05
2019-03-04T08:31:14.914Z,80.38
2019-03-04T08:32:14.880Z,80.07
2019-03-04T08:33:14.873Z,78.43
2019-03-04T08:34:14.864Z,78.12
2019-03-04T08:35:14.846Z,78.02
2019-03-04T08:36:14.858Z,78.53
2019-03-04T08:37:14.842Z,76.04
2019-03-04T08:38:14.825Z,76.86
2019-03-04T08:39:14.802Z,77.88
2019-03-04T08:40:14.793Z,76.65
2019-03-04T08:41:14.802Z,77.98
2019-03-04T08:42:14.795Z,78.09
2019-03-04T08:43:14.766Z,78.29
2019-03-04T08:44:14.754Z,78.29
2019-03-04T08:45:14.767Z,78.70
2019-03-04T08:46:14.732Z,75.83
2019-03-04T08:47:14.753Z,75.42
2019-03-04T08:48:14.705Z,76.75
2019-03-04T08:49:14.700Z,77.06
2019-03-04T08:50:14.681Z,74.91
2019-03-04T08:51:14.688Z,76.75
2019-03-04T08:52:14.662Z,75.52
2019-03-04T08:53:14.659Z,76.14
2019-03-04T08:54:14.636Z,76.34
2019-03-04T08:55:14.628Z,74.15
2019-03-04T08:56:14.639Z,74.46
2019-03-04T08:57:14.627Z,74.98
2019-03-04T08:58:14.620Z,75.59
2019-03-04T08:59:14.588Z,76.27
2019-03-04T09:00:14.573Z,76.17
2019-03-04T09:01:14.562Z,74.73
2019-03-04T09:02:14.581Z,73.71
2019-03-04T09:03:14.546Z,74.12
2019-03-04T09:04:14.542Z,72.68
2019-03-04T09:05:14.528Z,73.40
2019-03-04T09:06:14.538Z,73.91
2019-03-04T09:07:14.538Z,73.91
2019-03-04T09:08:14.609Z,71.86
2019-03-04T09:09:14.482Z,72.27
2019-03-04T09:10:15.048Z,73.81
2019-03-04T09:11:14.493Z,72.75
2019-03-04T09:12:14.485Z,73.78
2019-03-04T09:13:14.493Z,73.78
2019-03-04T09:14:14.443Z,72.89
2019-03-04T09:15:14.430Z,72.38
2019-03-04T09:16:14.419Z,72.96
2019-03-04T09:17:14.435Z,73.78
2019-03-04T09:18:14.387Z,73.57
2019-03-04T09:19:14.400Z,72.61
2019-03-04T09:20:14.380Z,71.59
2019-03-04T09:21:14.359Z,72.41
2019-03-04T09:22:14.360Z,72.89
2019-03-04T09:23:14.330Z,72.28
2019-03-04T09:24:14.366Z,73.30
2019-03-04T09:25:14.318Z,72.55
2019-03-04T09:26:14.332Z,71.66
2019-03-04T09:27:14.353Z,69.85
2019-03-04T09:28:14.279Z,70.47
2019-03-04T09:29:14.272Z,71.08
2019-03-04T09:30:14.270Z,71.80
2019-03-04T09:31:14.245Z,72.20
2019-03-04T09:32:14.230Z,72.92
2019-03-04T09:33:14.216Z,71.49
2019-03-04T09:34:14.212Z,70.47
2019-03-04T09:35:14.222Z,70.16
2019-03-04T09:36:14.190Z,70.43
2019-03-04T09:37:14.174Z,69.82
2019-03-04T09:38:14.161Z,71.04
2019-03-04T09:39:14.151Z,69.41
2019-03-04T09:40:14.147Z,69.20
2019-03-04T09:41:14.159Z,70.74
2019-03-04T09:42:14.124Z,69.20
2019-03-04T09:43:14.111Z,69.85
2019-03-04T09:44:14.101Z,70.87
2019-03-04T09:45:14.095Z,70.47
2019-03-04T09:46:14.074Z,70.77
2019-03-04T09:47:14.120Z,70.67
2019-03-04T09:48:14.085Z,70.29
2019-03-04T09:49:14.048Z,71.18
2019-03-04T09:50:14.034Z,72.31
2019-03-04T09:51:23.855Z,70.47
2019-03-04T09:52:15.011Z,70.91
2019-03-04T09:53:14.033Z,69.37
2019-03-04T09:54:13.993Z,70.87
2019-03-04T09:55:13.980Z,72.24
2019-03-04T09:56:13.970Z,71.83
2019-03-04T09:57:13.954Z,73.16
2019-03-04T09:58:13.943Z,72.27
2019-03-04T09:59:13.953Z,74.32
2019-03-04T10:00:13.934Z,74.94
2019-03-04T10:01:13.919Z,73.81
2019-03-04T10:02:13.913Z,74.87
2019-03-04T10:03:13.900Z,73.74
2019-03-04T10:04:13.909Z,74.77
2019-03-04T10:05:13.870Z,75.49
2019-03-04T10:06:13.864Z,76.41
2019-03-04T10:07:13.852Z,76.96
2019-03-04T10:08:13.846Z,77.92
2019-03-04T10:09:13.869Z,77.92
2019-03-04T10:10:15.925Z,78.64
2019-03-04T10:11:13.810Z,79.87
2019-03-04T10:12:13.812Z,81.82
2019-03-04T10:13:13.817Z,80.18
2019-03-04T10:14:13.778Z,80.69
2019-03-04T10:15:13.768Z,79.97
2019-03-04T10:16:18.733Z,81.71
2019-03-04T10:17:14.736Z,83.09
2019-03-04T10:18:13.731Z,82.78
2019-03-04T10:19:13.740Z,82.37
2019-03-04T10:20:13.714Z,83.19
2019-03-04T10:21:13.725Z,83.61
2019-03-04T10:22:13.704Z,81.96
2019-03-04T10:23:13.685Z,81.96
2019-03-04T10:24:13.668Z,81.90
2019-03-04T10:25:13.658Z,82.20
2019-03-04T10:26:22.147Z,82.10
2019-03-04T10:27:14.655Z,82.92
2019-03-04T10:28:13.622Z,81.38
2019-03-04T10:29:13.638Z,81.48
2019-03-04T10:30:13.620Z,81.59
2019-03-04T10:31:13.617Z,82.71
2019-03-04T10:32:13.587Z,83.64
2019-03-04T10:33:13.573Z,83.85
2019-03-04T10:34:13.589Z,84.16
2019-03-04T10:35:13.550Z,83.75
2019-03-04T10:36:13.536Z,83.13
2019-03-04T10:37:13.525Z,83.75
2019-03-04T10:38:22.337Z,82.51
2019-03-04T10:39:14.532Z,82.92
2019-03-04T10:40:15.541Z,81.96
2019-03-04T10:41:13.499Z,81.28
2019-03-04T10:42:13.485Z,80.56
2019-03-04T10:43:13.463Z,83.54
2019-03-04T10:44:13.478Z,83.33
2019-03-04T10:45:13.448Z,83.75
2019-03-04T10:46:13.456Z,83.37
2019-03-04T10:47:13.420Z,85.84
2019-03-04T10:48:13.420Z,86.05
2019-03-04T10:49:13.411Z,86.87
2019-03-04T10:50:13.465Z,84.64
2019-03-04T10:51:13.407Z,86.66
2019-03-04T10:52:13.365Z,87.32
2019-03-04T10:53:13.357Z,87.84
2019-03-04T10:54:13.342Z,87.32
2019-03-04T10:55:13.333Z,86.70
2019-03-04T10:56:13.341Z,85.98
2019-03-04T10:57:13.369Z,86.60
2019-03-04T10:58:13.313Z,86.40
2019-03-04T10:59:13.290Z,86.77
2019-03-04T11:00:13.300Z,85.43
2019-03-04T11:01:13.295Z,87.22
2019-03-04T11:02:13.276Z,87.38
2019-03-04T11:03:13.252Z,87.90
2019-03-04T11:04:13.243Z,86.35
2019-03-04T11:05:13.246Z,87.69
2019-03-04T11:06:13.216Z,87.07
2019-03-04T11:07:13.226Z,85.90
2019-03-04T11:08:13.205Z,87.13
2019-03-04T11:09:13.179Z,86.42
2019-03-04T11:10:13.173Z,86.25
2019-03-04T11:11:13.164Z,86.32
2019-03-04T11:12:14.164Z,87.34
2019-03-04T11:13:13.189Z,88.47
2019-03-04T11:14:13.170Z,87.85
2019-03-04T11:15:13.118Z,86.00
2019-03-04T11:16:13.119Z,88.17
2019-03-04T11:17:13.096Z,87.04
2019-03-04T11:18:13.095Z,87.13
2019-03-04T11:19:13.090Z,85.70
2019-03-04T11:20:13.067Z,84.63
2019-03-04T11:21:13.048Z,85.60
2019-03-04T11:22:13.038Z,84.74
2019-03-04T11:23:15.014Z,84.74
2019-03-04T11:24:13.045Z,83.61
2019-03-04T11:25:13.019Z,83.77
2019-03-04T11:26:12.995Z,83.67
2019-03-04T11:27:12.985Z,82.75
2019-03-04T11:28:12.995Z,81.62
2019-03-04T11:29:13.464Z,83.01
2019-03-04T11:30:12.966Z,83.67
2019-03-04T11:31:12.960Z,83.83
2019-03-04T11:32:12.974Z,84.76
2019-03-04T11:33:12.961Z,83.53
2019-03-04T11:34:12.917Z,84.90
2019-03-04T11:35:12.924Z,83.56
2019-03-04T11:36:12.890Z,82.75
2019-03-04T11:37:12.885Z,83.61
2019-03-04T11:38:12.872Z,85.04
2019-03-04T11:39:12.863Z,86.58
2019-03-04T11:40:12.879Z,89.44
2019-03-04T11:41:12.832Z,93.04
2019-03-04T11:42:12.842Z,94.56
2019-03-04T11:43:12.868Z,94.55
2019-03-04T11:44:13.129Z,95.36
2019-03-04T11:45:12.816Z,96.44
2019-03-04T11:46:12.801Z,96.69
2019-03-04T11:47:12.777Z,97.41
2019-03-04T11:48:12.765Z,97.86
2019-03-04T11:49:12.755Z,98.69
2019-03-04T11:50:12.743Z,99.10
2019-03-04T11:51:12.746Z,99.35
2019-03-04T11:52:12.734Z,99.98
2019-03-04T11:53:12.726Z,99.99
2019-03-04T11:54:12.761Z,99.99
2019-03-04T11:55:12.683Z,99.99
2019-03-04T11:56:12.695Z,99.99
2019-03-04T11:57:12.673Z,99.99
2019-03-04T11:58:12.649Z,99.99
2019-03-04T11:59:12.641Z,99.99
2019-03-04T12:00:12.635Z,99.99
2019-03-04T12:01:12.641Z,99.99
2019-03-04T12:02:12.642Z,99.99
2019-03-04T12:03:12.600Z,99.99
2019-03-04T12:04:12.589Z,99.99
2019-03-04T12:05:12.573Z,99.99
2019-03-04T12:06:12.567Z,99.99
2019-03-04T12:07:12.573Z,99.99
2019-03-04T12:08:12.545Z,99.99
2019-03-04T12:09:12.545Z,99.99
2019-03-04T12:10:12.536Z,99.99
2019-03-04T12:11:12.532Z,99.99
2019-03-04T12:12:12.501Z,99.99
2019-03-04T12:13:12.491Z,99.99
2019-03-04T12:14:12.515Z,99.99
2019-03-04T12:15:12.532Z,99.99
2019-03-04T12:16:12.458Z,99.99
2019-03-04T12:17:12.513Z,99.99
2019-03-04T12:18:12.436Z,99.99
2019-03-04T12:19:12.448Z,99.99
2019-03-04T12:20:12.449Z,99.99
2019-03-04T12:21:12.412Z,99.99
2019-03-04T12:22:12.420Z,99.99
2019-03-04T12:23:12.404Z,99.99
2019-03-04T12:24:12.376Z,99.99
2019-03-04T12:25:12.372Z,99.99
2019-03-04T12:26:12.348Z,99.99
2019-03-04T12:27:12.340Z,99.99
2019-03-04T12:28:12.356Z,99.99
2019-03-04T12:29:12.325Z,98.97
2019-03-04T12:30:12.303Z,99.29
2019-03-04T12:31:12.318Z,98.88
2019-03-04T12:32:12.290Z,97.58
2019-03-04T12:33:12.280Z,97.94
2019-03-04T12:34:12.287Z,97.73
2019-03-04T12:35:12.278Z,97.77
2019-03-04T12:36:12.288Z,98.66
2019-03-04T12:37:12.230Z,98.50
2019-03-04T12:38:12.241Z,98.91
2019-03-04T12:39:12.240Z,98.70
2019-03-04T12:40:12.201Z,98.50
2019-03-04T12:41:12.196Z,98.80
2019-03-04T12:42:12.188Z,98.54
2019-03-04T12:43:12.193Z,97.92
2019-03-04T12:44:12.161Z,99.01
2019-03-04T12:45:12.153Z,98.96
2019-03-04T12:46:12.141Z,98.70
2019-03-04T12:47:12.139Z,98.29
2019-03-04T12:48:12.132Z,97.88
2019-03-04T12:49:12.101Z,97.61
2019-03-04T12:50:12.090Z,96.79
2019-03-04T12:51:12.085Z,96.64
2019-03-04T12:52:12.075Z,96.12